createdAt,value
2022-10-21T00:01:00.514Z,2.50
2022-10-21T00:02:05.031Z,1.50
2022-10-21T00:03:10.119Z,2.50
2022-10-21T00:04:14.774Z,3.75
2022-10-21T00:05:19.383Z,3.00
2022-10-21T00:06:24.411Z,2.75
2022-10-21T00:07:29.225Z,2.75
2022-10-21T00:08:33.457Z,2.50
2022-10-21T00:09:37.629Z,2.50
2022-10-21T00:10:42.049Z,3.50
2022-10-21T00:11:46.633Z,3.00
2022-10-21T00:12:51.387Z,3.00
2022-10-21T00:13:55.698Z,3.00
2022-10-21T00:15:00.223Z,3.00
2022-10-21T00:16:04.719Z,2.75
2022-10-21T00:17:09.131Z,3.50
2022-10-21T00:18:13.848Z,4.00
2022-10-21T00:19:18.357Z,3.50
2022-10-21T00:21:28.203Z,3.00
2022-10-21T00:22:32.723Z,3.25
2022-10-21T00:23:37.340Z,3.00
2022-10-21T00:24:41.852Z,4.00
2022-10-21T00:25:46.365Z,3.50
2022-10-21T00:26:50.800Z,3.50
2022-10-21T00:27:54.872Z,2.50
2022-10-21T00:28:59.075Z,2.50
2022-10-21T00:30:03.271Z,3.75
2022-10-21T00:31:07.578Z,3.50
2022-10-21T00:32:11.901Z,3.50
2022-10-21T00:33:16.318Z,3.75
2022-10-21T00:34:21.131Z,3.25
2022-10-21T00:35:26.347Z,3.50
2022-10-21T00:36:30.875Z,3.00
2022-10-21T00:37:35.538Z,3.50
2022-10-21T00:38:39.787Z,3.75
2022-10-21T00:39:44.318Z,4.00
2022-10-21T00:40:48.537Z,4.50
2022-10-21T00:41:52.858Z,3.50
2022-10-21T00:42:57.337Z,3.50
2022-10-21T00:44:01.754Z,4.00
2022-10-21T00:45:06.262Z,4.00
2022-10-21T00:46:11.093Z,3.25
2022-10-21T00:47:15.195Z,3.75
2022-10-21T00:48:19.807Z,5.00
2022-10-21T00:49:24.221Z,5.00
2022-10-21T00:50:28.385Z,4.00
2022-10-21T00:51:32.928Z,4.00
2022-10-21T00:52:37.528Z,4.00
2022-10-21T00:53:42.279Z,4.00
2022-10-21T00:54:46.475Z,3.00
2022-10-21T00:55:51.083Z,4.50
2022-10-21T00:56:55.496Z,4.75
2022-10-21T00:58:00.223Z,4.00
2022-10-21T00:59:04.626Z,3.50
2022-10-21T01:00:09.053Z,4.00
2022-10-21T01:01:16.639Z,3.50
2022-10-21T01:02:18.984Z,4.00
2022-10-21T01:03:23.598Z,4.50
2022-10-21T01:04:28.208Z,4.00
2022-10-21T01:05:32.417Z,4.00
2022-10-21T01:06:37.138Z,3.50
2022-10-21T01:07:41.570Z,3.00
2022-10-21T01:08:46.010Z,4.25
2022-10-21T01:09:50.468Z,4.25
2022-10-21T01:10:55.206Z,4.00
2022-10-21T01:11:59.238Z,4.25
2022-10-21T01:13:03.522Z,4.50
2022-10-21T01:14:07.915Z,3.50
2022-10-21T01:15:12.528Z,3.50
2022-10-21T01:16:17.060Z,4.50
2022-10-21T01:17:40.278Z,4.25
2022-10-21T01:18:26.988Z,4.25
2022-10-21T01:19:31.713Z,3.00
2022-10-21T01:20:36.231Z,4.00
2022-10-21T01:21:40.865Z,4.00
2022-10-21T01:22:45.346Z,2.75
2022-10-21T01:23:49.861Z,2.50
2022-10-21T01:24:54.290Z,2.50
2022-10-21T01:25:58.475Z,2.50
2022-10-21T01:27:03.019Z,3.50
2022-10-21T01:28:08.016Z,4.00
2022-10-21T01:29:12.412Z,4.00
2022-10-21T01:30:17.085Z,3.50
2022-10-21T01:31:21.447Z,4.00
2022-10-21T01:32:25.704Z,4.00
2022-10-21T01:33:30.068Z,4.50
2022-10-21T01:34:34.068Z,4.00
2022-10-21T01:35:38.462Z,3.50
2022-10-21T01:36:42.693Z,4.25
2022-10-21T01:37:47.219Z,4.25
2022-10-21T01:38:51.289Z,4.50
2022-10-21T01:39:55.719Z,4.00
2022-10-21T01:41:00.191Z,4.50
2022-10-21T01:42:05.998Z,4.50
2022-10-21T01:43:10.484Z,3.50
2022-10-21T01:44:14.783Z,4.00
2022-10-21T01:45:19.186Z,4.00
2022-10-21T01:46:23.403Z,4.00
2022-10-21T01:47:27.954Z,4.00
2022-10-21T01:48:32.174Z,4.25
2022-10-21T01:49:36.635Z,4.50
2022-10-21T01:50:40.985Z,4.50
2022-10-21T01:51:45.454Z,4.00
2022-10-21T01:52:49.667Z,4.75
2022-10-21T01:53:54.171Z,4.50
2022-10-21T01:54:58.592Z,4.50
2022-10-21T01:56:03.310Z,4.50
2022-10-21T01:57:07.725Z,4.50
2022-10-21T01:58:12.123Z,4.25
2022-10-21T01:59:16.546Z,4.50
2022-10-21T02:00:20.958Z,5.00
2022-10-21T02:01:25.493Z,5.00
2022-10-21T02:02:30.074Z,5.00
2022-10-21T02:03:34.589Z,4.50
2022-10-21T02:04:39.004Z,4.75
2022-10-21T02:05:43.505Z,4.50
2022-10-21T02:06:48.128Z,5.00
2022-10-21T02:07:55.548Z,4.50
2022-10-21T02:09:00.039Z,4.00
2022-10-21T02:10:04.533Z,4.50
2022-10-21T02:11:09.250Z,4.50
2022-10-21T02:12:13.867Z,4.00
2022-10-21T02:13:18.081Z,3.50
2022-10-21T02:14:22.385Z,3.50
2022-10-21T02:15:26.671Z,4.00
2022-10-21T02:16:30.812Z,5.50
2022-10-21T02:17:35.313Z,5.00
2022-10-21T02:18:39.711Z,4.00
2022-10-21T02:19:44.026Z,5.00
2022-10-21T02:20:48.645Z,4.50
2022-10-21T02:21:53.065Z,4.00
2022-10-21T02:22:57.772Z,4.00
2022-10-21T02:24:02.095Z,4.00
2022-10-21T02:25:06.367Z,4.00
2022-10-21T02:26:10.901Z,4.00
2022-10-21T02:27:15.306Z,4.00
2022-10-21T02:28:19.619Z,5.00
2022-10-21T02:29:24.245Z,4.00
2022-10-21T02:30:28.632Z,4.50
2022-10-21T02:31:32.883Z,6.00
2022-10-21T02:32:37.317Z,5.50
2022-10-21T02:33:42.176Z,3.50
2022-10-21T02:34:46.486Z,3.50
2022-10-21T02:35:50.789Z,3.25
2022-10-21T02:36:54.814Z,3.50
2022-10-21T02:37:59.207Z,3.50
2022-10-21T02:39:03.754Z,3.50
2022-10-21T02:40:07.924Z,3.00
2022-10-21T02:41:12.642Z,3.00
2022-10-21T02:42:17.259Z,3.50
2022-10-21T02:43:21.880Z,4.00
2022-10-21T02:44:26.394Z,4.00
2022-10-21T02:45:31.030Z,3.50
2022-10-21T02:46:35.206Z,2.50
2022-10-21T02:47:40.219Z,3.00
2022-10-21T02:48:44.751Z,3.50
2022-10-21T02:49:49.261Z,3.50
2022-10-21T02:50:53.427Z,3.00
2022-10-21T02:51:58.183Z,3.50
2022-10-21T02:53:02.391Z,3.00
2022-10-21T02:54:07.887Z,4.00
2022-10-21T02:55:11.980Z,3.50
2022-10-21T02:56:16.300Z,3.50
2022-10-21T02:57:20.448Z,3.00
2022-10-21T02:58:25.060Z,3.00
2022-10-21T02:59:29.777Z,2.50
2022-10-21T03:00:34.192Z,2.50
2022-10-21T03:01:38.600Z,2.00
2022-10-21T03:02:42.657Z,3.00
2022-10-21T03:03:47.113Z,2.50
2022-10-21T03:04:51.226Z,2.50
2022-10-21T03:05:55.327Z,3.00
2022-10-21T03:06:59.642Z,2.50
2022-10-21T03:08:03.753Z,3.00
2022-10-21T03:09:07.818Z,2.00
2022-10-21T03:10:11.751Z,3.00
2022-10-21T03:11:16.044Z,2.50
2022-10-21T03:12:20.457Z,2.00
2022-10-21T03:13:24.553Z,2.50
2022-10-21T03:14:28.758Z,2.50
2022-10-21T03:15:33.060Z,2.25
2022-10-21T03:16:37.241Z,2.00
2022-10-21T03:17:41.812Z,2.00
2022-10-21T03:18:46.308Z,1.50
2022-10-21T03:19:50.822Z,1.25
2022-10-21T03:20:55.222Z,1.75
2022-10-21T03:21:59.470Z,2.00
2022-10-21T03:23:03.943Z,1.75
2022-10-21T03:24:15.250Z,1.50
2022-10-21T03:25:13.679Z,1.00
2022-10-21T03:26:18.300Z,1.50
2022-10-21T03:27:22.747Z,1.25
2022-10-21T03:28:27.162Z,0.50
2022-10-21T03:29:50.202Z,2.00
2022-10-21T03:30:54.690Z,0.25
2022-10-21T03:31:59.400Z,0.50
2022-10-21T03:33:03.813Z,0.50
2022-10-21T03:34:08.249Z,1.00
2022-10-21T03:35:12.744Z,1.00
2022-10-21T03:36:17.054Z,0.00
2022-10-21T03:37:21.867Z,0.75
2022-10-21T03:38:26.481Z,0.25
2022-10-21T03:39:31.201Z,0.00
2022-10-21T03:40:35.605Z,0.25
2022-10-21T03:41:40.121Z,0.50
2022-10-21T03:42:44.302Z,1.00
2022-10-21T03:43:48.430Z,0.00
2022-10-21T03:44:52.663Z,0.00
2022-10-21T03:45:57.247Z,0.50
2022-10-21T03:47:01.650Z,0.50
2022-10-21T03:48:06.174Z,0.00
2022-10-21T03:49:15.537Z,0.00
2022-10-21T03:50:19.235Z,0.00
2022-10-21T03:51:21.975Z,0.00
2022-10-21T03:52:26.489Z,0.00
2022-10-21T03:53:42.941Z,0.50
2022-10-21T03:54:35.901Z,0.25
2022-10-21T03:55:40.724Z,0.00
2022-10-21T03:56:45.264Z,0.00
2022-10-21T03:57:49.337Z,0.00
2022-10-21T03:58:57.826Z,0.00
2022-10-21T03:59:58.937Z,0.50
2022-10-21T04:01:03.512Z,1.00
2022-10-21T04:02:08.166Z,0.00
2022-10-21T04:03:12.516Z,0.50
2022-10-21T04:04:16.845Z,1.00
2022-10-21T04:05:21.481Z,0.50
2022-10-21T04:06:26.099Z,0.50
2022-10-21T04:07:30.587Z,0.25
2022-10-21T04:08:35.017Z,0.50
2022-10-21T04:09:39.503Z,1.00
2022-10-21T04:10:43.607Z,0.50
2022-10-21T04:11:47.800Z,0.50
2022-10-21T04:12:52.232Z,0.25
2022-10-21T04:13:56.843Z,0.50
2022-10-21T04:15:01.569Z,0.50
2022-10-21T04:16:05.870Z,1.00
2022-10-21T04:17:10.318Z,0.25
2022-10-21T04:18:16.121Z,0.75
2022-10-21T04:19:20.530Z,0.25
2022-10-21T04:20:25.079Z,0.50
2022-10-21T04:21:29.666Z,0.50
2022-10-21T04:22:33.966Z,1.25
2022-10-21T04:23:38.370Z,1.25
2022-10-21T04:24:42.694Z,1.00
2022-10-21T04:25:46.898Z,1.50
2022-10-21T04:26:51.204Z,0.50
2022-10-21T04:27:55.461Z,1.25
2022-10-21T04:29:00.024Z,1.00
2022-10-21T04:30:04.540Z,2.00
2022-10-21T04:31:09.152Z,1.00
2022-10-21T04:32:13.559Z,1.00
2022-10-21T04:33:18.003Z,1.00
2022-10-21T04:34:22.490Z,2.00
2022-10-21T04:35:26.904Z,0.25
2022-10-21T04:36:30.999Z,2.00
2022-10-21T04:37:35.235Z,1.00
2022-10-21T04:38:39.319Z,1.00
2022-10-21T04:39:43.414Z,1.50
2022-10-21T04:40:47.518Z,1.50
2022-10-21T04:41:51.954Z,1.50
2022-10-21T04:42:56.073Z,1.00
2022-10-21T04:44:00.383Z,1.00
2022-10-21T04:45:04.459Z,1.00
2022-10-21T04:46:09.963Z,0.50
2022-10-21T04:47:13.780Z,2.00
2022-10-21T04:48:18.207Z,1.00
2022-10-21T04:49:22.380Z,1.25
2022-10-21T04:50:26.806Z,1.00
2022-10-21T04:52:36.438Z,1.00
2022-10-21T04:53:41.077Z,1.50
2022-10-21T04:54:45.086Z,1.50
2022-10-21T04:55:49.194Z,1.50
2022-10-21T04:56:53.681Z,0.75
2022-10-21T04:57:57.778Z,1.00
2022-10-21T04:59:02.191Z,1.00
2022-10-21T05:00:06.400Z,1.00
2022-10-21T05:01:10.945Z,1.50
2022-10-21T05:02:15.218Z,1.00
2022-10-21T05:03:19.836Z,0.25
2022-10-21T05:04:24.242Z,1.00
2022-10-21T05:05:28.250Z,1.00
2022-10-21T05:06:32.554Z,1.00
2022-10-21T05:07:37.269Z,0.00
2022-10-21T05:08:41.158Z,0.50
2022-10-21T05:09:46.726Z,0.50
2022-10-21T05:10:50.923Z,1.00
2022-10-21T05:11:55.325Z,1.00
2022-10-21T05:12:59.746Z,0.50
2022-10-21T05:14:04.043Z,0.25
2022-10-21T05:15:08.359Z,0.50
2022-10-21T05:16:12.766Z,0.25
2022-10-21T05:17:16.973Z,0.00
2022-10-21T05:18:21.893Z,0.00
2022-10-21T05:19:30.360Z,0.50
2022-10-21T05:20:31.839Z,0.25
2022-10-21T05:22:40.138Z,0.25
2022-10-21T05:23:44.972Z,0.00
2022-10-21T05:24:49.168Z,0.00
2022-10-21T05:25:53.498Z,0.50
2022-10-21T05:26:58.095Z,0.50
2022-10-21T05:28:02.403Z,0.00
2022-10-21T05:29:06.607Z,0.00
2022-10-21T05:30:11.230Z,0.50
2022-10-21T05:31:15.461Z,0.00
2022-10-21T05:32:20.047Z,0.00
2022-10-21T05:33:24.259Z,0.50
2022-10-21T05:34:28.767Z,0.00
2022-10-21T05:35:33.069Z,0.00
2022-10-21T05:36:37.387Z,0.00
2022-10-21T05:37:41.589Z,0.00
2022-10-21T05:38:46.310Z,0.00
2022-10-21T05:39:50.831Z,0.00
2022-10-21T05:40:55.027Z,0.00
2022-10-21T05:41:59.748Z,0.50
2022-10-21T05:43:04.311Z,0.50
2022-10-21T05:44:08.871Z,0.00
2022-10-21T05:45:13.281Z,0.00
2022-10-21T05:46:17.481Z,0.00
2022-10-21T05:47:21.805Z,0.00
2022-10-21T05:48:26.620Z,0.00
2022-10-21T05:49:30.927Z,0.00
2022-10-21T05:50:35.032Z,0.25
2022-10-21T05:51:39.358Z,0.00
2022-10-21T05:52:43.535Z,0.00
2022-10-21T05:53:47.844Z,0.00
2022-10-21T05:54:52.266Z,0.00
2022-10-21T05:55:56.466Z,0.00
2022-10-21T05:57:00.783Z,0.00
2022-10-21T05:58:05.380Z,0.00
2022-10-21T05:59:10.290Z,0.50
2022-10-21T06:00:18.185Z,0.50
2022-10-21T06:01:22.519Z,0.00
2022-10-21T06:02:26.643Z,0.00
2022-10-21T06:03:30.517Z,0.00
2022-10-21T06:04:37.922Z,0.00
2022-10-21T06:05:40.466Z,1.00
2022-10-21T06:06:44.542Z,1.00
2022-10-21T06:07:48.672Z,0.00
2022-10-21T06:08:52.792Z,0.00
2022-10-21T06:09:56.777Z,0.00
2022-10-21T06:11:00.659Z,0.00
2022-10-21T06:12:04.682Z,0.00
2022-10-21T06:13:08.874Z,0.00
2022-10-21T06:14:13.294Z,0.00
2022-10-21T06:15:17.704Z,0.00
2022-10-21T06:16:21.828Z,0.00
2022-10-21T06:17:26.323Z,0.00
2022-10-21T06:18:30.315Z,0.00
2022-10-21T06:19:34.355Z,0.00
2022-10-21T06:20:38.527Z,0.00
2022-10-21T06:21:42.741Z,0.00
2022-10-21T06:22:47.045Z,0.00
2022-10-21T06:23:51.135Z,0.00
2022-10-21T06:24:55.343Z,0.00
2022-10-21T06:25:59.442Z,0.00
2022-10-21T06:27:03.753Z,0.00
2022-10-21T06:28:07.873Z,0.00
2022-10-21T06:29:12.077Z,0.00
2022-10-21T06:30:16.168Z,0.00
2022-10-21T06:31:20.382Z,0.00
2022-10-21T06:32:24.664Z,0.00
2022-10-21T06:33:29.099Z,0.00
2022-10-21T06:34:33.509Z,0.00
2022-10-21T06:35:39.072Z,0.00
2022-10-21T06:36:43.154Z,0.00
2022-10-21T06:37:47.356Z,0.00
2022-10-21T06:38:51.666Z,0.00
2022-10-21T06:39:56.277Z,0.00
2022-10-21T06:41:00.891Z,0.25
2022-10-21T06:42:05.202Z,0.00
2022-10-21T06:43:09.584Z,0.00
2022-10-21T06:44:13.705Z,0.00
2022-10-21T06:45:18.024Z,0.00
2022-10-21T06:46:22.328Z,0.25
2022-10-21T06:47:26.955Z,0.50
2022-10-21T06:48:31.364Z,0.75
2022-10-21T06:49:35.574Z,1.00
2022-10-21T06:50:39.672Z,1.00
2022-10-21T06:51:44.187Z,0.00
2022-10-21T06:52:48.700Z,0.50
2022-10-21T06:53:53.007Z,0.00
2022-10-21T06:54:57.209Z,1.00
2022-10-21T06:56:01.520Z,1.00
2022-10-21T06:57:05.825Z,0.50
2022-10-21T06:58:10.233Z,0.00
2022-10-21T06:59:14.449Z,0.50
2022-10-21T07:00:18.986Z,0.25
2022-10-21T07:01:34.249Z,0.50
2022-10-21T07:02:28.798Z,0.50
2022-10-21T07:03:33.006Z,0.50
2022-10-21T07:04:37.322Z,1.00
2022-10-21T07:05:41.835Z,0.00
2022-10-21T07:06:46.584Z,0.00
2022-10-21T07:07:51.059Z,1.00
2022-10-21T07:08:58.304Z,0.75
2022-10-21T07:10:01.237Z,0.50
2022-10-21T07:11:05.621Z,0.00
2022-10-21T07:12:09.754Z,0.50
2022-10-21T07:13:14.183Z,0.00
2022-10-21T07:14:18.693Z,1.00
2022-10-21T07:15:22.959Z,1.00
2022-10-21T07:16:27.490Z,1.50
2022-10-21T07:17:31.779Z,1.00
2022-10-21T07:18:39.184Z,1.50
2022-10-21T07:19:41.629Z,0.75
2022-10-21T07:20:45.763Z,1.50
2022-10-21T07:21:50.041Z,0.75
2022-10-21T07:22:54.041Z,0.00
2022-10-21T07:23:59.576Z,1.75
2022-10-21T07:25:03.675Z,2.50
2022-10-21T07:26:07.887Z,0.75
2022-10-21T07:27:12.194Z,1.00
2022-10-21T07:28:16.914Z,0.50
2022-10-21T07:29:21.432Z,1.75
2022-10-21T07:30:25.733Z,2.00
2022-10-21T07:31:31.166Z,2.00
2022-10-21T07:32:35.278Z,1.50
2022-10-21T07:33:39.265Z,0.75
2022-10-21T07:34:43.374Z,1.25
2022-10-21T07:35:47.680Z,1.50
2022-10-21T07:36:51.987Z,1.25
2022-10-21T07:37:56.118Z,1.00
2022-10-21T07:39:00.297Z,1.50
2022-10-21T07:40:04.706Z,1.50
2022-10-21T07:41:09.009Z,1.50
2022-10-21T07:42:13.124Z,1.25
2022-10-21T07:43:17.231Z,1.00
2022-10-21T07:44:21.332Z,0.25
2022-10-21T07:45:25.639Z,1.00
2022-10-21T07:46:29.945Z,1.00
2022-10-21T07:47:34.046Z,1.50
2022-10-21T07:48:38.125Z,1.00
2022-10-21T07:49:42.586Z,1.00
2022-10-21T07:50:46.870Z,0.75
2022-10-21T07:51:50.977Z,0.50
2022-10-21T07:53:03.760Z,0.25
2022-10-21T07:54:00.724Z,0.50
2022-10-21T07:55:04.921Z,1.00
2022-10-21T07:56:09.333Z,0.75
2022-10-21T07:57:13.436Z,0.50
2022-10-21T07:58:17.708Z,0.00
2022-10-21T07:59:21.955Z,0.50
2022-10-21T08:00:26.056Z,1.00
2022-10-21T08:01:30.134Z,1.00
2022-10-21T08:02:34.461Z,1.50
2022-10-21T08:03:38.568Z,1.00
2022-10-21T08:04:42.658Z,1.00
2022-10-21T08:05:46.880Z,0.75
2022-10-21T08:06:51.084Z,1.00
2022-10-21T08:07:55.292Z,0.25
2022-10-21T08:08:59.223Z,0.50
2022-10-21T08:10:03.527Z,1.75
2022-10-21T08:11:07.703Z,1.00
2022-10-21T08:12:14.497Z,0.00
2022-10-21T08:13:17.752Z,0.00
2022-10-21T08:14:21.904Z,0.50
2022-10-21T08:15:25.983Z,1.00
2022-10-21T08:16:30.049Z,1.25
2022-10-21T08:17:34.364Z,0.25
2022-10-21T08:18:38.370Z,0.00
2022-10-21T08:19:42.795Z,0.00
2022-10-21T08:20:47.087Z,0.50
2022-10-21T08:21:51.395Z,0.25
2022-10-21T08:22:55.704Z,0.50
2022-10-21T08:24:00.018Z,1.00
2022-10-21T08:25:04.425Z,1.00
2022-10-21T08:26:08.942Z,0.25
2022-10-21T08:27:13.246Z,0.50
2022-10-21T08:28:17.656Z,0.50
2022-10-21T08:29:22.171Z,0.25
2022-10-21T08:30:26.262Z,0.50
2022-10-21T08:31:31.001Z,0.50
2022-10-21T08:32:34.888Z,0.00
2022-10-21T08:33:39.305Z,0.00
2022-10-21T08:34:43.402Z,0.00
2022-10-21T08:35:47.512Z,0.00
2022-10-21T08:36:51.817Z,1.00
2022-10-21T08:37:56.486Z,0.50
2022-10-21T08:39:00.941Z,0.25
2022-10-21T08:40:04.953Z,0.00
2022-10-21T08:41:09.162Z,0.00
2022-10-21T08:42:13.456Z,0.00
2022-10-21T08:43:17.772Z,0.50
2022-10-21T08:44:22.078Z,0.50
2022-10-21T08:45:26.494Z,0.00
2022-10-21T08:46:31.101Z,0.00
2022-10-21T08:47:35.804Z,0.50
2022-10-21T08:48:40.123Z,1.00
2022-10-21T08:49:44.336Z,1.00
2022-10-21T08:50:48.253Z,0.50
2022-10-21T08:51:52.233Z,0.25
2022-10-21T08:52:56.751Z,0.25
2022-10-21T08:54:01.153Z,0.25
2022-10-21T08:55:05.670Z,0.50
2022-10-21T08:56:10.344Z,0.25
2022-10-21T08:57:14.824Z,0.50
2022-10-21T08:58:18.708Z,0.00
2022-10-21T08:59:23.111Z,0.00
2022-10-21T09:00:27.317Z,0.00
2022-10-21T09:01:31.624Z,0.00
2022-10-21T09:02:35.856Z,0.00
2022-10-21T09:03:40.131Z,0.50
2022-10-21T09:04:44.160Z,0.50
2022-10-21T09:05:48.242Z,0.50
2022-10-21T09:06:52.346Z,0.00
2022-10-21T09:07:56.467Z,0.00
2022-10-21T09:09:00.895Z,0.00
2022-10-21T09:10:05.573Z,0.00
2022-10-21T09:11:09.894Z,0.25
2022-10-21T09:12:14.405Z,0.50
2022-10-21T09:13:18.976Z,0.00
2022-10-21T09:14:23.701Z,0.00
2022-10-21T09:15:28.042Z,0.00
2022-10-21T09:16:32.145Z,0.00
2022-10-21T09:17:36.789Z,0.50
2022-10-21T09:18:41.169Z,0.00
2022-10-21T09:19:45.284Z,0.00
2022-10-21T09:20:53.509Z,0.00
2022-10-21T09:22:05.492Z,0.00
2022-10-21T09:23:00.348Z,0.50
2022-10-21T09:24:04.560Z,0.25
2022-10-21T09:25:09.165Z,0.00
2022-10-21T09:26:13.273Z,0.00
2022-10-21T09:27:22.817Z,0.00
2022-10-21T09:28:23.127Z,0.00
2022-10-21T09:29:27.533Z,0.00
2022-10-21T09:30:31.628Z,0.00
2022-10-21T09:31:35.736Z,0.00
2022-10-21T09:32:39.941Z,0.00
2022-10-21T09:33:44.143Z,0.00
2022-10-21T09:34:48.864Z,0.50
2022-10-21T09:35:52.968Z,0.00
2022-10-21T09:36:57.086Z,0.00
2022-10-21T09:38:01.278Z,0.00
2022-10-21T09:39:05.484Z,0.00
2022-10-21T09:40:09.580Z,0.00
2022-10-21T09:41:13.909Z,0.00
2022-10-21T09:42:42.206Z,0.50
2022-10-21T09:43:23.345Z,0.50
2022-10-21T09:44:28.052Z,0.50
2022-10-21T09:45:32.260Z,0.00
2022-10-21T09:46:40.656Z,0.50
2022-10-21T09:47:44.664Z,1.00
2022-10-21T09:50:07.026Z,0.50
2022-10-21T09:51:00.555Z,0.00
2022-10-21T09:52:05.072Z,0.00
2022-10-21T09:53:09.586Z,0.50
2022-10-21T09:54:13.883Z,0.50
2022-10-21T09:55:18.338Z,0.25
2022-10-21T09:56:22.807Z,0.00
2022-10-21T09:57:27.146Z,0.00
2022-10-21T09:58:31.952Z,0.00
2022-10-21T09:59:36.569Z,0.00
2022-10-21T10:00:40.756Z,0.25
2022-10-21T10:01:45.086Z,0.00
2022-10-21T10:02:49.270Z,0.00
2022-10-21T10:03:53.599Z,0.00
2022-10-21T10:04:57.617Z,0.00
2022-10-21T10:06:01.594Z,0.00
2022-10-21T10:07:06.008Z,0.00
2022-10-21T10:08:10.404Z,0.50
2022-10-21T10:09:14.441Z,0.50
2022-10-21T10:10:18.921Z,0.00
2022-10-21T10:11:23.434Z,0.00
2022-10-21T10:12:27.958Z,0.00
2022-10-21T10:13:32.280Z,0.50
2022-10-21T10:14:36.367Z,0.50
2022-10-21T10:15:40.765Z,1.00
2022-10-21T10:16:44.871Z,0.25
2022-10-21T10:17:48.972Z,0.50
2022-10-21T10:18:53.183Z,0.25
2022-10-21T10:19:57.907Z,0.00
2022-10-21T10:21:02.333Z,0.00
2022-10-21T10:22:10.174Z,0.00
2022-10-21T10:23:12.459Z,0.00
2022-10-21T10:24:16.566Z,0.75
2022-10-21T10:25:20.665Z,0.50
2022-10-21T10:26:24.978Z,1.00
2022-10-21T10:27:29.171Z,1.75
2022-10-21T10:28:32.931Z,1.50
2022-10-21T10:29:37.392Z,1.00
2022-10-21T10:30:41.595Z,1.00
2022-10-21T10:31:45.730Z,1.50
2022-10-21T10:32:50.014Z,1.50
2022-10-21T10:33:58.031Z,1.25
2022-10-21T10:34:59.562Z,1.50
2022-10-21T10:36:05.425Z,1.00
2022-10-21T10:37:09.183Z,0.75
2022-10-21T10:38:13.482Z,1.00
2022-10-21T10:39:17.906Z,1.00
2022-10-21T10:40:22.448Z,1.25
2022-10-21T10:41:26.737Z,0.50
2022-10-21T10:42:30.725Z,1.50
2022-10-21T10:43:34.732Z,1.00
2022-10-21T10:44:38.609Z,0.50
2022-10-21T10:45:42.834Z,1.50
2022-10-21T10:47:50.543Z,1.25
2022-10-21T10:48:54.653Z,1.00
2022-10-21T10:49:58.742Z,1.50
2022-10-21T10:51:02.945Z,1.50
2022-10-21T10:52:07.185Z,1.50
2022-10-21T10:53:11.356Z,2.00
2022-10-21T10:54:15.528Z,2.00
2022-10-21T10:55:19.560Z,1.25
2022-10-21T10:56:23.657Z,2.00
2022-10-21T10:57:38.983Z,2.00
2022-10-21T10:58:33.475Z,1.00
2022-10-21T10:59:37.717Z,1.00
2022-10-21T11:00:41.607Z,1.25
2022-10-21T11:01:45.624Z,1.00
2022-10-21T11:02:49.708Z,2.25
2022-10-21T11:03:53.917Z,1.75
2022-10-21T11:04:58.074Z,0.75
2022-10-21T11:06:02.329Z,1.50
2022-10-21T11:07:06.848Z,1.50
2022-10-21T11:08:11.274Z,2.00
2022-10-21T11:09:15.598Z,1.50
2022-10-21T11:10:19.872Z,1.00
2022-10-21T11:11:24.388Z,1.50
2022-10-21T11:12:28.898Z,2.00
2022-10-21T11:13:33.101Z,1.50
2022-10-21T11:14:37.417Z,1.50
2022-10-21T11:15:41.448Z,1.50
2022-10-21T11:16:59.664Z,1.00
2022-10-21T11:17:50.989Z,1.50
2022-10-21T11:18:55.257Z,1.50
2022-10-21T11:19:59.286Z,1.75
2022-10-21T11:21:03.274Z,1.50
2022-10-21T11:22:07.571Z,1.50
2022-10-21T11:23:11.677Z,2.00
2022-10-21T11:24:15.586Z,1.50
2022-10-21T11:25:19.782Z,1.75
2022-10-21T11:26:24.289Z,1.00
2022-10-21T11:27:28.803Z,0.50
2022-10-21T11:28:33.317Z,1.50
2022-10-21T11:29:37.834Z,1.25
2022-10-21T11:30:42.136Z,1.50
2022-10-21T11:32:06.662Z,0.75
2022-10-21T11:32:52.170Z,1.50
2022-10-21T11:33:56.398Z,1.50
2022-10-21T11:35:00.506Z,1.50
2022-10-21T11:36:05.013Z,1.50
2022-10-21T11:37:09.215Z,0.50
2022-10-21T11:38:13.934Z,1.50
2022-10-21T11:39:21.336Z,1.00
2022-10-21T11:40:23.897Z,1.50
2022-10-21T11:41:28.504Z,1.25
2022-10-21T11:42:33.214Z,1.00
2022-10-21T11:43:37.214Z,1.00
2022-10-21T11:44:41.318Z,0.50
2022-10-21T11:45:45.524Z,0.50
2022-10-21T11:46:49.529Z,0.75
2022-10-21T11:47:53.642Z,1.00
2022-10-21T11:48:57.731Z,1.00
2022-10-21T11:50:02.246Z,1.00
2022-10-21T11:51:06.483Z,0.75
2022-10-21T11:52:10.762Z,1.50
2022-10-21T11:53:14.769Z,1.00
2022-10-21T11:54:18.773Z,1.00
2022-10-21T11:55:22.975Z,1.00
2022-10-21T11:56:27.305Z,1.00
2022-10-21T11:57:31.818Z,1.50
2022-10-21T11:58:35.860Z,1.50
2022-10-21T11:59:40.103Z,1.00
2022-10-21T12:00:44.303Z,1.00
2022-10-21T12:01:48.338Z,0.50
2022-10-21T12:02:52.704Z,1.25
2022-10-21T12:03:56.843Z,1.50
2022-10-21T12:05:01.032Z,0.50
2022-10-21T12:06:05.236Z,0.50
2022-10-21T12:07:11.189Z,0.50
2022-10-21T12:08:14.609Z,1.00
2022-10-21T12:09:18.795Z,1.50
2022-10-21T12:10:23.003Z,2.00
2022-10-21T12:11:27.192Z,1.75
2022-10-21T12:12:31.491Z,0.50
2022-10-21T12:13:35.591Z,0.25
2022-10-21T12:14:39.698Z,0.75
2022-10-21T12:15:44.002Z,1.50
2022-10-21T12:16:48.108Z,1.25
2022-10-21T12:17:52.112Z,1.00
2022-10-21T12:18:56.112Z,1.00
2022-10-21T12:20:00.315Z,1.00
2022-10-21T12:21:04.726Z,1.00
2022-10-21T12:22:08.948Z,1.50
2022-10-21T12:23:13.101Z,1.50
2022-10-21T12:24:17.451Z,1.75
2022-10-21T12:25:21.413Z,1.75
2022-10-21T12:26:25.780Z,1.50
2022-10-21T12:27:29.729Z,2.00
2022-10-21T12:28:33.661Z,1.25
2022-10-21T12:29:37.792Z,1.50
2022-10-21T12:30:41.984Z,1.50
2022-10-21T12:31:46.065Z,1.75
2022-10-21T12:32:50.171Z,3.00
2022-10-21T12:33:54.293Z,1.75
2022-10-21T12:34:58.541Z,1.50
2022-10-21T12:36:02.587Z,1.00
2022-10-21T12:37:06.892Z,1.00
2022-10-21T12:38:11.096Z,1.25
2022-10-21T12:39:15.301Z,1.50
2022-10-21T12:40:19.305Z,2.00
2022-10-21T12:41:23.514Z,2.00
2022-10-21T12:42:27.508Z,1.50
2022-10-21T12:43:31.722Z,1.50
2022-10-21T12:44:35.698Z,1.25
2022-10-21T12:45:39.924Z,1.00
2022-10-21T12:46:43.685Z,1.75
2022-10-21T12:47:47.725Z,1.50
2022-10-21T12:48:51.927Z,2.00
2022-10-21T12:49:56.035Z,1.50
2022-10-21T12:50:59.964Z,1.00
2022-10-21T12:52:03.962Z,2.00
2022-10-21T12:53:08.367Z,2.50
2022-10-21T12:54:12.358Z,2.25
2022-10-21T12:55:16.646Z,2.00
2022-10-21T12:56:20.728Z,1.50
2022-10-21T12:57:24.762Z,1.50
2022-10-21T12:58:29.165Z,1.75
2022-10-21T12:59:33.684Z,2.00
2022-10-21T13:00:38.057Z,2.00
2022-10-21T13:01:42.506Z,1.50
2022-10-21T13:02:49.485Z,2.00
2022-10-21T13:03:52.039Z,2.00
2022-10-21T13:04:56.031Z,1.75
2022-10-21T13:06:00.062Z,2.00
2022-10-21T13:07:04.449Z,2.00
2022-10-21T13:08:09.078Z,1.00
2022-10-21T13:09:13.004Z,2.00
2022-10-21T13:10:17.408Z,2.00
2022-10-21T13:11:21.680Z,2.00
2022-10-21T13:12:26.197Z,1.75
2022-10-21T13:13:30.502Z,2.00
2022-10-21T13:14:36.363Z,1.50
2022-10-21T13:15:40.355Z,1.50
2022-10-21T13:16:44.454Z,1.50
2022-10-21T13:17:48.861Z,0.75
2022-10-21T13:18:53.168Z,0.75
2022-10-21T13:19:57.268Z,2.25
2022-10-21T13:21:01.583Z,2.00
2022-10-21T13:22:05.965Z,1.50
2022-10-21T13:23:10.096Z,1.00
2022-10-21T13:24:14.309Z,1.00
2022-10-21T13:25:18.402Z,2.00
2022-10-21T13:26:22.513Z,2.00
2022-10-21T13:27:26.440Z,1.50
2022-10-21T13:28:30.511Z,1.00
2022-10-21T13:29:34.619Z,1.00
2022-10-21T13:30:38.530Z,1.50
2022-10-21T13:31:42.821Z,0.50
2022-10-21T13:32:47.135Z,1.00
2022-10-21T13:33:51.744Z,1.75
2022-10-21T13:34:55.749Z,1.00
2022-10-21T13:36:00.155Z,1.50
2022-10-21T13:37:04.575Z,1.50
2022-10-21T13:38:08.974Z,0.50
2022-10-21T13:39:13.296Z,2.00
2022-10-21T13:40:17.700Z,2.00
2022-10-21T13:41:22.108Z,0.50
2022-10-21T13:42:26.137Z,2.00
2022-10-21T13:43:30.524Z,1.50
2022-10-21T13:44:34.937Z,1.00
2022-10-21T13:46:43.939Z,1.00
2022-10-21T13:47:48.365Z,1.75
2022-10-21T13:48:52.784Z,1.50
2022-10-21T13:49:56.898Z,0.50
2022-10-21T13:51:01.297Z,1.00
2022-10-21T13:52:05.501Z,1.50
2022-10-21T13:53:09.601Z,1.75
2022-10-21T13:54:13.709Z,1.50
2022-10-21T13:55:17.812Z,2.00
2022-10-21T13:56:22.192Z,1.00
2022-10-21T13:57:26.320Z,1.25
2022-10-21T13:58:30.532Z,1.50
2022-10-21T13:59:35.252Z,1.50
2022-10-21T14:00:39.603Z,1.00
2022-10-21T14:01:44.063Z,1.25
2022-10-21T14:02:47.980Z,1.25
2022-10-21T14:03:52.094Z,0.50
2022-10-21T14:04:56.074Z,1.00
2022-10-21T14:06:00.084Z,1.50
2022-10-21T14:07:04.077Z,2.00
2022-10-21T14:08:08.378Z,1.50
2022-10-21T14:09:12.438Z,1.50
2022-10-21T14:10:16.486Z,1.50
2022-10-21T14:11:20.798Z,1.50
2022-10-21T14:12:24.799Z,1.50
2022-10-21T14:13:28.896Z,2.00
2022-10-21T14:14:33.024Z,1.50
2022-10-21T14:15:37.101Z,1.00
2022-10-21T14:16:41.001Z,0.50
2022-10-21T14:17:45.110Z,1.50
2022-10-21T14:18:49.310Z,2.00
2022-10-21T14:19:53.418Z,2.00
2022-10-21T14:20:57.730Z,2.00
2022-10-21T14:22:01.857Z,2.00
2022-10-21T14:23:06.037Z,2.00
2022-10-21T14:24:10.266Z,2.00